Weather History for Oklahoma City / Page Muni, OK

Change the Weather History Date:

Friday, November 15, 2013

  Actual Average (KOKC) Record (KOKC)
Temperature  
Mean Temperature 52 °F 51 °F  
Max Temperature 64 °F 62 °F 84 °F (1903)
Min Temperature 41 °F 40 °F 15 °F (1940)
Degree Days  
Heating Degree Days 12 14  
Month to date heating degree days 170  
Since 1 July heating degree days 334  
Cooling Degree Days 0 0  
Month to date cooling degree days 7  
Year to date cooling degree days 2099  
Growing Degree Days 2 (Base 50)    
Moisture  
Dew Point 42 °F    
Average Humidity 70    
Maximum Humidity 93    
Minimum Humidity 48    
Precipitation  
Precipitation 0.00 in 0.06 in 2.43 in (1890)
Month to date precipitation 1.13  
Year to date precipitation 33.79  
Snow  
Snow 0.00 in 0.00 in T in (1972)
Month to date snowfall 0.1  
Since 1 July snowfall 0.1  
Snow Depth -    
Sea Level Pressure  
Sea Level Pressure 29.86 in    
Wind  
Wind Speed 13 mph (South)    
Max Wind Speed 23 mph    
Max Gust Speed 32 mph    
Visibility 10 miles    
Events      
T = Trace of Precipitation, MM = Missing Value Source: NWS Daily Summary

Daily Weather History Graph

Daily Weather History Graph

Search for Another Location

Airport:

Trip Planner

Search our weather history database for the weather conditions in past years. The results will help you decide how hot, cold, wet, or windy it might be!

Date:

Astronomy

Nov. 15, 2013 Rise Set
Actual Time 7:07 AM CST 5:24 PM CST
Civil Twilight 6:39 AM CST 5:51 PM CST
Nautical Twilight 6:09 AM CST 6:22 PM CST
Astronomical Twilight 5:38 AM CST 6:52 PM CST
Moon 4:19 PM CST (11/15) 5:08 AM CST (11/15)
Length of Visible Light 11h 11m
Length of Day
10h 17m
Waxing Gibbous, 96% of the Moon is Illuminated
Nov 15
Waxing Gibbous
Nov 17
Full
Nov 25
Last Quarter
Dec 2
New
Dec 9
First Quarter

Hourly Weather History & Observations

Time (CST) Temp. Windchill Dew Point Humidity Pressure Visibility Wind Dir Wind Speed Gust Speed Precip Events Conditions
12:15 AM 44.6 °F 39.2 °F 35.6 °F 71% 29.96 in 10.0 mi SSE 10.4 mph - N/A   Unknown
12:35 AM 44.6 °F 40.2 °F 35.6 °F 71% 29.96 in 10.0 mi South 8.1 mph - N/A   Unknown
12:55 AM 44.6 °F 39.2 °F 37.4 °F 76% 29.95 in 10.0 mi South 10.4 mph - N/A   Unknown
1:15 AM 44.6 °F 39.2 °F 37.4 °F 76% 29.94 in 10.0 mi South 10.4 mph - N/A   Mostly Cloudy
1:35 AM 44.6 °F 38.8 °F 37.4 °F 76% 29.93 in 10.0 mi South 11.5 mph - N/A   Unknown
1:55 AM 44.6 °F 38.4 °F 37.4 °F 76% 29.93 in 10.0 mi South 12.7 mph - N/A   Unknown
2:15 AM 44.6 °F 38.4 °F 37.4 °F 76% 29.92 in 10.0 mi SSE 12.7 mph - N/A   Unknown
2:35 AM 42.8 °F 36.6 °F 37.4 °F 81% 29.92 in 10.0 mi SSE 11.5 mph - N/A   Unknown
2:55 AM 42.8 °F 36.6 °F 37.4 °F 81% 29.93 in 10.0 mi SSE 11.5 mph - N/A   Unknown
3:15 AM 42.8 °F 36.2 °F 37.4 °F 81% 29.92 in 10.0 mi South 12.7 mph - N/A   Clear
3:35 AM 42.8 °F 36.2 °F 37.4 °F 81% 29.92 in 10.0 mi SSE 12.7 mph - N/A   Clear
3:55 AM 42.8 °F 37.5 °F 39.2 °F 87% 29.92 in 10.0 mi South 9.2 mph - N/A   Partly Cloudy
4:15 AM 42.8 °F 38.6 °F 37.4 °F 81% 29.92 in 10.0 mi South 6.9 mph - N/A   Clear
4:35 AM 41.0 °F 35.8 °F 37.4 °F 87% 29.91 in 10.0 mi South 8.1 mph - N/A   Clear
4:55 AM 41.0 °F 34.7 °F 39.2 °F 93% 29.91 in 10.0 mi SSE 10.4 mph - N/A   Partly Cloudy
5:15 AM 41.0 °F 34.7 °F 39.2 °F 93% 29.91 in 10.0 mi South 10.4 mph - N/A   Partly Cloudy
5:35 AM 41.0 °F 35.2 °F 39.2 °F 93% 29.92 in 10.0 mi South 9.2 mph - N/A   Clear
5:55 AM 41.0 °F 34.7 °F 39.2 °F 93% 29.92 in 10.0 mi South 10.4 mph - N/A   Clear
6:15 AM 41.0 °F 34.7 °F 39.2 °F 93% 29.91 in 10.0 mi South 10.4 mph - N/A   Partly Cloudy
6:35 AM 41.0 °F 35.8 °F 39.2 °F 93% 29.92 in 10.0 mi South 8.1 mph - N/A   Clear
6:55 AM 41.0 °F 35.2 °F 39.2 °F 93% 29.93 in 10.0 mi South 9.2 mph - N/A   Clear
7:15 AM 41.0 °F 35.8 °F 39.2 °F 93% 29.93 in 10.0 mi South 8.1 mph - N/A   Clear
7:35 AM 41.0 °F 34.3 °F 39.2 °F 93% 29.91 in 10.0 mi South 11.5 mph - N/A   Clear
7:55 AM 42.8 °F 37.5 °F 41.0 °F 93% 29.92 in 10.0 mi South 9.2 mph - N/A   Clear
8:15 AM 44.6 °F 39.7 °F 41.0 °F 87% 29.92 in 10.0 mi South 9.2 mph - N/A   Clear
8:35 AM 46.4 °F 41.1 °F 41.0 °F 81% 29.92 in 10.0 mi South 11.5 mph - N/A   Clear
8:55 AM 48.2 °F - 41.0 °F 76% 29.93 in 10.0 mi South 12.7 mph 17.3 mph N/A   Clear
9:15 AM 50.0 °F - 41.0 °F 71% 29.94 in 10.0 mi South 16.1 mph 20.7 mph N/A   Clear
9:35 AM 50.0 °F - 41.0 °F 71% 29.94 in 10.0 mi SSW 15.0 mph 19.6 mph N/A   Clear
9:55 AM 50.0 °F - 41.0 °F 71% 29.94 in 10.0 mi South 15.0 mph 21.9 mph N/A   Clear
10:15 AM 51.8 °F - 41.0 °F 67% 29.93 in 10.0 mi South 13.8 mph - N/A   Clear
10:35 AM 53.6 °F - 41.0 °F 62% 29.92 in 10.0 mi SSW 13.8 mph 19.6 mph N/A   Clear
10:55 AM 55.4 °F - 42.8 °F 63% 29.93 in 10.0 mi SSW 12.7 mph - N/A   Clear
11:15 AM 55.4 °F - 42.8 °F 63% 29.93 in 10.0 mi SSW 10.4 mph 18.4 mph N/A   Clear
11:35 AM 57.2 °F - 42.8 °F 59% 29.93 in 10.0 mi SSW 11.5 mph - N/A   Clear
11:55 AM 57.2 °F - 42.8 °F 59% 29.91 in 10.0 mi SSW 12.7 mph 17.3 mph N/A   Clear
12:15 PM 59.0 °F - 42.8 °F 55% 29.91 in 10.0 mi South 15.0 mph 20.7 mph N/A   Clear
12:35 PM 59.0 °F - 42.8 °F 55% 29.89 in 10.0 mi South 15.0 mph 21.9 mph N/A   Clear
12:55 PM 60.8 °F - 42.8 °F 52% 29.87 in 10.0 mi South 18.4 mph 23.0 mph N/A   Clear
1:15 PM 60.8 °F - 42.8 °F 52% 29.85 in 10.0 mi South 16.1 mph 19.6 mph N/A   Clear
1:35 PM 62.6 °F - 42.8 °F 48% 29.84 in 10.0 mi SSW 13.8 mph 18.4 mph N/A   Clear
1:55 PM 62.6 °F - 44.6 °F 52% 29.83 in 10.0 mi South 18.4 mph - N/A   Clear
2:15 PM 64.4 °F - 44.6 °F 49% 29.83 in 10.0 mi South 17.3 mph 23.0 mph N/A   Clear
2:35 PM 64.4 °F - 44.6 °F 49% 29.82 in 10.0 mi South 18.4 mph 23.0 mph N/A   Clear
2:55 PM 64.4 °F - 44.6 °F 49% 29.80 in 10.0 mi South 15.0 mph - N/A   Clear
3:15 PM 64.4 °F - 44.6 °F 49% 29.79 in 10.0 mi South 18.4 mph 21.9 mph N/A   Clear
3:35 PM 64.4 °F - 44.6 °F 49% 29.78 in 10.0 mi South 13.8 mph 21.9 mph N/A   Clear
3:55 PM 64.4 °F - 44.6 °F 49% 29.79 in 10.0 mi South 16.1 mph 20.7 mph N/A   Clear
4:15 PM 62.6 °F - 44.6 °F 52% 29.78 in 10.0 mi South 12.7 mph - N/A   Clear
4:35 PM 62.6 °F - 44.6 °F 52% 29.78 in 10.0 mi South 9.2 mph - N/A   Clear
4:55 PM 60.8 °F - 44.6 °F 55% 29.78 in 10.0 mi South 10.4 mph - N/A   Clear
5:15 PM 59.0 °F - 44.6 °F 59% 29.78 in 10.0 mi South 13.8 mph - N/A   Clear
5:35 PM 59.0 °F - 44.6 °F 59% 29.76 in 10.0 mi SSE 13.8 mph - N/A   Clear
5:55 PM 59.0 °F - 44.6 °F 59% 29.76 in 10.0 mi SSE 13.8 mph - N/A   Clear
6:15 PM 59.0 °F - 44.6 °F 59% 29.76 in 10.0 mi South 17.3 mph 21.9 mph N/A   Clear
6:35 PM 57.2 °F - 44.6 °F 63% 29.77 in 10.0 mi South 16.1 mph 24.2 mph N/A   Clear
6:55 PM 57.2 °F - 44.6 °F 63% 29.77 in 10.0 mi South 15.0 mph 20.7 mph N/A   Clear
7:15 PM 57.2 °F - 44.6 °F 63% 29.77 in 10.0 mi South 16.1 mph 20.7 mph N/A   Clear
7:35 PM 57.2 °F - 44.6 °F 63% 29.77 in 10.0 mi South 18.4 mph 23.0 mph N/A   Clear
7:55 PM 57.2 °F - 44.6 °F 63% 29.77 in 10.0 mi South 17.3 mph 24.2 mph N/A   Mostly Cloudy
8:15 PM 57.2 °F - 46.4 °F 67% 29.76 in 10.0 mi SSE 19.6 mph 26.5 mph N/A   Mostly Cloudy
8:35 PM 57.2 °F - 46.4 °F 67% 29.76 in 10.0 mi SSE 19.6 mph 26.5 mph N/A   Partly Cloudy
8:55 PM 57.2 °F - 46.4 °F 67% 29.76 in 10.0 mi South 17.3 mph 26.5 mph N/A   Scattered Clouds
9:15 PM 57.2 °F - 46.4 °F 67% 29.75 in 10.0 mi South 20.7 mph 26.5 mph N/A   Scattered Clouds
9:35 PM 57.2 °F - 46.4 °F 67% 29.76 in 10.0 mi South 19.6 mph 32.2 mph N/A   Partly Cloudy
9:55 PM 57.2 °F - 48.2 °F 72% 29.76 in 10.0 mi South 21.9 mph 27.6 mph N/A   Clear
10:15 PM 57.2 °F - 48.2 °F 72% 29.75 in 10.0 mi South 20.7 mph 28.8 mph N/A   Clear
10:35 PM 57.2 °F - 48.2 °F 72% 29.75 in 10.0 mi South 20.7 mph 28.8 mph N/A   Clear
10:55 PM 57.2 °F - 50.0 °F 77% 29.75 in 10.0 mi South 20.7 mph 27.6 mph N/A   Clear
11:15 PM 57.2 °F - 50.0 °F 77% 29.75 in 10.0 mi South 20.7 mph 28.8 mph N/A   Unknown
11:35 PM 57.2 °F - 53.6 °F 88% 29.75 in 10.0 mi South 18.4 mph 26.5 mph N/A   Clear
11:55 PM 57.2 °F - 53.6 °F 88% 29.74 in 10.0 mi South 23.0 mph 28.8 mph N/A   Clear